Terminal Aerodrome Forecast
Issued by NWS

Current Version | Previous Version | Graphics & Text | Print | Product List | Glossary On
Versions: 1 2 3 4 5 6 7 8 9 10 11 12 13 14 15 16 17 18 19 20 21 22 23
000
FTUS41 KILN 181720
TAFLUK
TAF
KLUK 181720Z 1818/1918 VRB04KT P6SM SCT045 BKN150
     FM182000 VRB03KT P6SM VCTS SCT045CB BKN120
     FM190000 VRB02KT P6SM BKN150
     FM191000 VRB03KT 4SM BR BKN050
     FM191400 VRB03KT P6SM -SHRA BKN060=

USA.gov is the U.S. government's official web portal to all federal, state and local government web resources and services.